createdAt,value
2022-08-17T00:01:30.270Z,100940.06
2022-08-17T00:04:10.742Z,100938.38
2022-08-17T00:06:38.560Z,100942.13
2022-08-17T00:09:05.617Z,100940.59
2022-08-17T00:11:38.816Z,100944.47
2022-08-17T00:14:08.207Z,100942.78
2022-08-17T00:16:57.093Z,100939.25
2022-08-17T00:19:25.637Z,100945.47
2022-08-17T00:22:31.890Z,100946.56
2022-08-17T00:24:42.775Z,100945.72
2022-08-17T00:27:09.177Z,100941.47
2022-08-17T00:29:36.272Z,100939.03
2022-08-17T00:33:14.244Z,100939.16
2022-08-17T00:34:49.907Z,100937.47
2022-08-17T00:37:16.819Z,100929.56
2022-08-17T00:39:43.727Z,100925.44
2022-08-17T00:42:18.454Z,100927.41
2022-08-17T00:44:45.853Z,100929.22
2022-08-17T00:47:12.422Z,100935.69
2022-08-17T00:49:38.806Z,100932.41
2022-08-17T00:52:15.204Z,100937.88
2022-08-17T00:54:44.686Z,100930.00
2022-08-17T00:57:17.678Z,100934.38
2022-08-17T01:00:02.612Z,100931.81
2022-08-17T01:02:40.419Z,100945.41
2022-08-17T01:05:14.894Z,100941.31
2022-08-17T01:07:42.802Z,100938.78
2022-08-17T01:10:58.157Z,100931.13
2022-08-17T01:13:02.545Z,100942.66
2022-08-17T01:15:31.597Z,100939.41
2022-08-17T01:17:58.109Z,100936.88
2022-08-17T01:20:25.050Z,100947.78
2022-08-17T01:22:52.074Z,100949.75
2022-08-17T01:25:20.583Z,100941.00
2022-08-17T01:27:48.659Z,100944.66
2022-08-17T01:30:58.639Z,100949.25
2022-08-17T01:33:04.185Z,100944.16
2022-08-17T01:35:30.832Z,100948.78
2022-08-17T01:37:57.314Z,100951.69
2022-08-17T01:40:32.786Z,100953.78
2022-08-17T01:43:05.816Z,100953.91
2022-08-17T01:45:34.232Z,100957.56
2022-08-17T01:48:00.981Z,100962.25
2022-08-17T01:50:31.872Z,100950.84
2022-08-17T01:53:02.965Z,100950.97
2022-08-17T01:55:38.027Z,100953.88
2022-08-17T01:58:08.816Z,100959.47
2022-08-17T02:00:46.687Z,100963.13
2022-08-17T02:03:25.308Z,100959.59
2022-08-17T02:05:53.176Z,100951.84
2022-08-17T02:08:21.634Z,100952.78
2022-08-17T02:11:11.519Z,100942.09
2022-08-17T02:13:38.734Z,100949.28
2022-08-17T02:16:05.790Z,100947.72
2022-08-17T02:18:32.349Z,100945.28
2022-08-17T02:20:59.211Z,100950.00
2022-08-17T02:23:29.173Z,100948.31
2022-08-17T02:25:57.728Z,100954.63
2022-08-17T02:28:24.607Z,100959.25
2022-08-17T02:31:01.818Z,100955.72
2022-08-17T02:33:41.820Z,100950.38
2022-08-17T02:36:10.056Z,100948.69
2022-08-17T02:38:37.587Z,100940.78
2022-08-17T02:41:05.006Z,100944.44
2022-08-17T02:43:32.292Z,100948.19
2022-08-17T02:45:58.683Z,100945.78
2022-08-17T02:48:30.764Z,100938.97
2022-08-17T02:51:00.020Z,100942.75
2022-08-17T02:53:27.285Z,100939.44
2022-08-17T02:55:53.687Z,100939.56
2022-08-17T02:58:34.806Z,100946.84
2022-08-17T03:01:05.182Z,100946.97
2022-08-17T03:03:32.082Z,100943.47
2022-08-17T03:05:58.602Z,100945.28
2022-08-17T03:08:25.414Z,100945.38
2022-08-17T03:10:52.265Z,100948.31
2022-08-17T03:13:18.903Z,100948.44
2022-08-17T03:15:46.551Z,100947.78
2022-08-17T03:18:24.326Z,100946.00
2022-08-17T03:20:53.244Z,100941.63
2022-08-17T03:23:24.150Z,100943.44
2022-08-17T03:25:52.997Z,100946.22
2022-08-17T03:28:21.172Z,100948.16
2022-08-17T03:30:47.791Z,100948.28
2022-08-17T03:33:14.572Z,100947.63
2022-08-17T03:35:41.871Z,100952.13
2022-08-17T03:38:12.358Z,100955.88
2022-08-17T03:40:56.674Z,100950.56
2022-08-17T03:43:31.361Z,100948.84
2022-08-17T03:46:34.030Z,100955.25
2022-08-17T03:49:24.057Z,100951.88
2022-08-17T03:52:09.420Z,100955.50
2022-08-17T03:54:54.883Z,100957.44
2022-08-17T03:57:21.357Z,100964.72
2022-08-17T03:59:47.914Z,100949.78
2022-08-17T04:02:21.421Z,100955.34
2022-08-17T04:04:52.066Z,100955.34
2022-08-17T04:07:20.716Z,100957.19
2022-08-17T04:09:47.181Z,100959.22
2022-08-17T04:12:16.164Z,100960.19
2022-08-17T04:14:51.920Z,100962.84
2022-08-17T04:17:20.428Z,100956.66
2022-08-17T04:19:46.959Z,100962.00
2022-08-17T04:22:32.089Z,100959.47
2022-08-17T04:25:17.523Z,100961.03
2022-08-17T04:27:44.001Z,100957.53
2022-08-17T04:30:11.295Z,100962.84
2022-08-17T04:33:12.545Z,100969.16
2022-08-17T04:35:43.553Z,100980.66
2022-08-17T04:38:13.116Z,100977.03
2022-08-17T04:40:58.546Z,100977.88
2022-08-17T04:43:26.903Z,100978.63
2022-08-17T04:45:57.247Z,100984.94
2022-08-17T04:48:36.226Z,100983.97
2022-08-17T04:51:16.833Z,100986.63
2022-08-17T04:53:45.737Z,100987.25
2022-08-17T04:56:20.625Z,100982.63
2022-08-17T04:58:50.472Z,100985.22
2022-08-17T05:01:23.290Z,100987.75
2022-08-17T05:03:50.202Z,100979.63
2022-08-17T05:06:16.666Z,100978.53
2022-08-17T05:08:43.166Z,100983.75
2022-08-17T05:11:10.107Z,100986.19
2022-08-17T05:13:36.660Z,100977.09
2022-08-17T05:16:05.499Z,100983.91
2022-08-17T05:18:32.807Z,100988.19
2022-08-17T05:20:59.213Z,100986.25
2022-08-17T05:23:27.185Z,100984.31
2022-08-17T05:26:04.305Z,100986.63
2022-08-17T05:28:33.530Z,100995.25
2022-08-17T05:31:03.300Z,100994.16
2022-08-17T05:33:35.971Z,100995.75
2022-08-17T05:36:04.705Z,100995.50
2022-08-17T05:38:32.380Z,100998.91
2022-08-17T05:41:03.985Z,100993.31
2022-08-17T05:43:35.883Z,101002.91
2022-08-17T05:46:07.794Z,101001.09
2022-08-17T05:48:41.203Z,100994.69
2022-08-17T05:51:29.540Z,100994.56
2022-08-17T05:54:17.692Z,100993.44
2022-08-17T05:57:12.418Z,101005.59
2022-08-17T06:00:10.841Z,101004.38
2022-08-17T06:02:53.281Z,101010.22
2022-08-17T06:05:46.023Z,101009.97
2022-08-17T06:08:27.308Z,101017.63
2022-08-17T06:11:20.076Z,101012.03
2022-08-17T06:14:07.044Z,101012.41
2022-08-17T06:16:41.332Z,101001.38
2022-08-17T06:19:35.915Z,101013.41
2022-08-17T06:22:05.650Z,101012.91
2022-08-17T06:24:47.577Z,101006.34
2022-08-17T06:27:14.056Z,101007.41
2022-08-17T06:29:52.428Z,101003.53
2022-08-17T06:32:19.068Z,100999.41
2022-08-17T06:34:46.676Z,101007.88
2022-08-17T06:38:36.920Z,101004.00
2022-08-17T06:41:02.056Z,101003.09
2022-08-17T06:43:48.163Z,101014.28
2022-08-17T06:46:25.656Z,101010.13
2022-08-17T06:49:07.843Z,101015.13
2022-08-17T06:51:43.179Z,101010.13
2022-08-17T06:54:25.857Z,101011.53
2022-08-17T06:57:02.268Z,101011.88
2022-08-17T06:59:47.190Z,101016.59
2022-08-17T07:02:52.040Z,101013.41
2022-08-17T07:05:36.640Z,101016.31
2022-08-17T07:08:26.408Z,101021.66
2022-08-17T07:11:01.265Z,101016.38
2022-08-17T07:13:51.078Z,101018.25
2022-08-17T07:16:27.844Z,101019.09
2022-08-17T07:18:56.854Z,101019.38
2022-08-17T07:21:57.116Z,101026.19
2022-08-17T07:24:47.191Z,101016.38
2022-08-17T07:27:27.569Z,101022.38
2022-08-17T07:30:18.479Z,101017.91
2022-08-17T07:32:50.761Z,101023.59
2022-08-17T07:35:37.573Z,101023.03
2022-08-17T07:38:26.323Z,101013.25
2022-08-17T07:41:02.662Z,101023.00
2022-08-17T07:43:36.705Z,101018.50
2022-08-17T07:46:41.679Z,101012.16
2022-08-17T07:49:12.487Z,101014.47
2022-08-17T07:51:40.977Z,101014.38
2022-08-17T07:54:22.277Z,101008.88
2022-08-17T07:56:54.488Z,101009.59
2022-08-17T07:59:34.028Z,101008.63
2022-08-17T08:02:02.286Z,101022.72
2022-08-17T08:07:21.729Z,101021.00
2022-08-17T08:10:05.933Z,101023.53
2022-08-17T08:12:44.742Z,101022.16
2022-08-17T08:15:22.285Z,101014.38
2022-08-17T08:17:55.469Z,101013.66
2022-08-17T08:20:53.443Z,101022.25
2022-08-17T08:23:48.663Z,101025.63
2022-08-17T08:26:26.296Z,101024.59
2022-08-17T08:29:20.396Z,101031.78
2022-08-17T08:32:03.795Z,101028.19
2022-08-17T08:35:01.923Z,101025.66
2022-08-17T08:37:42.925Z,101030.44
2022-08-17T08:40:33.345Z,101036.22
2022-08-17T08:43:16.624Z,101032.06
2022-08-17T08:46:04.696Z,101034.47
2022-08-17T08:49:10.271Z,101042.25
2022-08-17T08:51:52.577Z,101046.31
2022-08-17T08:54:56.828Z,101049.16
2022-08-17T08:57:34.125Z,101045.47
2022-08-17T09:00:14.837Z,101043.09
2022-08-17T09:02:59.685Z,101046.78
2022-08-17T09:05:53.470Z,101042.78
2022-08-17T09:08:19.939Z,101047.25
2022-08-17T09:11:08.250Z,101043.28
2022-08-17T09:14:07.636Z,101051.13
2022-08-17T09:17:05.753Z,101046.88
2022-08-17T09:19:40.950Z,101043.06
2022-08-17T09:22:42.627Z,101044.25
2022-08-17T09:25:15.715Z,101045.44
2022-08-17T09:27:52.353Z,101048.44
2022-08-17T09:30:19.987Z,101045.03
2022-08-17T09:32:55.163Z,101054.81
2022-08-17T09:35:32.946Z,101053.09
2022-08-17T09:38:32.378Z,101040.25
2022-08-17T09:40:59.086Z,101045.63
2022-08-17T09:43:54.354Z,101047.50
2022-08-17T09:46:38.733Z,101047.72
2022-08-17T09:49:14.988Z,101042.09
2022-08-17T09:51:48.918Z,101037.44
2022-08-17T09:54:42.019Z,101036.78
2022-08-17T09:57:30.273Z,101032.91
2022-08-17T10:00:32.572Z,101025.69
2022-08-17T10:03:25.246Z,101022.84
2022-08-17T10:05:59.323Z,101025.75
2022-08-17T10:08:54.733Z,101022.38
2022-08-17T10:11:48.293Z,101027.78
2022-08-17T10:14:38.002Z,101025.41
2022-08-17T10:17:30.042Z,101025.00
2022-08-17T10:20:09.109Z,101022.94
2022-08-17T10:23:11.627Z,101024.56
2022-08-17T10:26:10.068Z,101026.56
2022-08-17T10:28:47.977Z,101030.50
2022-08-17T10:31:34.914Z,101027.84
2022-08-17T10:34:56.375Z,101021.75
2022-08-17T10:37:46.560Z,101021.50
2022-08-17T10:40:46.608Z,101020.50
2022-08-17T10:43:29.888Z,101012.03
2022-08-17T10:46:30.890Z,101013.22
2022-08-17T10:49:38.361Z,101000.69
2022-08-17T10:52:21.084Z,101003.47
2022-08-17T10:54:49.091Z,101013.41
2022-08-17T10:57:33.736Z,101013.41
2022-08-17T11:00:03.059Z,101007.91
2022-08-17T11:02:39.328Z,101003.81
2022-08-17T11:05:14.701Z,101001.38
2022-08-17T11:08:01.649Z,101002.53
2022-08-17T11:10:42.094Z,100996.88
2022-08-17T11:13:37.693Z,101008.41
2022-08-17T11:16:13.016Z,101001.59
2022-08-17T11:18:50.711Z,101004.13
2022-08-17T11:21:42.253Z,101001.59
2022-08-17T11:24:33.877Z,100998.03
2022-08-17T11:27:02.930Z,100996.44
2022-08-17T11:30:01.831Z,100994.78
2022-08-17T11:32:31.321Z,100993.22
2022-08-17T11:35:22.714Z,100989.81
2022-08-17T11:38:15.942Z,100992.66
2022-08-17T11:41:01.015Z,100999.94
2022-08-17T11:44:04.767Z,100997.34
2022-08-17T11:47:09.268Z,100996.06
2022-08-17T11:50:00.375Z,100992.75
2022-08-17T11:52:45.987Z,100991.63
2022-08-17T11:55:39.641Z,100989.91
2022-08-17T11:58:30.330Z,100991.56
2022-08-17T12:01:02.304Z,100986.22
2022-08-17T12:03:31.905Z,100987.50
2022-08-17T12:06:30.991Z,100985.84
2022-08-17T12:09:34.508Z,100986.59
2022-08-17T12:12:14.253Z,100991.22
2022-08-17T12:17:41.030Z,100982.03
2022-08-17T12:20:23.373Z,100982.16
2022-08-17T12:23:00.973Z,100975.22
2022-08-17T12:25:55.386Z,100974.56
2022-08-17T12:28:28.150Z,100973.94
2022-08-17T12:30:59.645Z,100984.06
2022-08-17T12:33:28.893Z,100990.69
2022-08-17T12:36:05.196Z,100982.75
2022-08-17T12:38:35.005Z,100980.00
2022-08-17T12:41:22.855Z,100981.94
2022-08-17T12:44:04.259Z,100991.25
2022-08-17T12:46:35.778Z,100994.63
2022-08-17T12:49:19.528Z,100994.03
2022-08-17T12:51:47.311Z,100997.28
2022-08-17T12:54:57.173Z,100989.91
2022-08-17T12:57:33.556Z,100988.16
2022-08-17T13:00:09.454Z,100987.69
2022-08-17T13:02:53.301Z,100983.28
2022-08-17T13:05:41.617Z,100981.41
2022-08-17T13:08:39.719Z,100984.94
2022-08-17T13:11:26.470Z,100981.72
2022-08-17T13:13:56.474Z,100974.00
2022-08-17T13:16:26.572Z,100976.19
2022-08-17T13:19:12.707Z,100974.50
2022-08-17T13:21:46.037Z,100970.25
2022-08-17T13:24:18.408Z,100969.16
2022-08-17T13:26:51.697Z,100963.28
2022-08-17T13:29:39.717Z,100956.97
2022-08-17T13:32:13.209Z,100958.75
2022-08-17T13:35:04.690Z,100961.72
2022-08-17T13:37:32.741Z,100953.66
2022-08-17T13:40:11.436Z,100951.34
2022-08-17T13:42:51.843Z,100940.25
2022-08-17T13:45:35.326Z,100941.78
2022-08-17T13:48:13.804Z,100935.03
2022-08-17T13:50:56.025Z,100935.34
2022-08-17T13:53:31.301Z,100941.09
2022-08-17T13:56:07.330Z,100942.28
2022-08-17T13:59:00.075Z,100948.69
2022-08-17T14:01:41.840Z,100946.53
2022-08-17T14:04:18.392Z,100941.47
2022-08-17T14:07:08.241Z,100946.00
2022-08-17T14:09:39.657Z,100943.31
2022-08-17T14:12:13.593Z,100944.16
2022-08-17T14:14:40.676Z,100949.56
2022-08-17T14:17:07.869Z,100942.47
2022-08-17T14:19:36.485Z,100944.88
2022-08-17T14:22:04.912Z,100944.88
2022-08-17T14:24:34.511Z,100943.88
2022-08-17T14:27:03.514Z,100936.94
2022-08-17T14:29:31.936Z,100943.69
2022-08-17T14:32:04.286Z,100937.63
2022-08-17T14:34:30.727Z,100936.78
2022-08-17T14:36:57.193Z,100936.06
2022-08-17T14:39:23.608Z,100928.13
2022-08-17T14:41:50.122Z,100936.56
2022-08-17T14:44:16.981Z,100931.81
2022-08-17T14:46:44.667Z,100923.53
2022-08-17T14:49:13.345Z,100931.97
2022-08-17T14:51:43.724Z,100934.50
2022-08-17T14:54:11.822Z,100932.31
2022-08-17T14:57:08.645Z,100929.47
2022-08-17T14:59:44.794Z,100927.94
2022-08-17T15:02:11.621Z,100930.31
2022-08-17T15:04:41.879Z,100919.69
2022-08-17T15:07:11.524Z,100918.19
2022-08-17T15:09:38.049Z,100916.31
2022-08-17T15:12:06.488Z,100909.09
2022-08-17T15:14:35.349Z,100916.03
2022-08-17T15:17:03.621Z,100908.25
2022-08-17T15:19:30.257Z,100904.72
2022-08-17T15:21:56.699Z,100902.38
2022-08-17T15:24:23.324Z,100903.03
2022-08-17T15:26:49.847Z,100901.16
2022-08-17T15:29:16.266Z,100896.97
2022-08-17T15:31:43.207Z,100897.97
2022-08-17T15:34:09.654Z,100902.84
2022-08-17T15:36:36.218Z,100903.00
2022-08-17T15:39:03.516Z,100903.38
2022-08-17T15:41:29.997Z,100900.97
2022-08-17T15:43:56.840Z,100898.81
2022-08-17T15:46:25.614Z,100892.56
2022-08-17T15:48:56.492Z,100893.41
2022-08-17T15:51:32.318Z,100886.31
2022-08-17T15:54:18.871Z,100885.97
2022-08-17T15:56:49.431Z,100888.84
2022-08-17T15:59:15.886Z,100883.78
2022-08-17T16:03:14.774Z,100887.34
2022-08-17T16:04:30.947Z,100891.19
2022-08-17T16:06:59.456Z,100883.44
2022-08-17T16:09:25.890Z,100882.13
2022-08-17T16:11:55.288Z,100878.91
2022-08-17T16:14:22.808Z,100876.88
2022-08-17T16:16:50.608Z,100867.59
2022-08-17T16:19:17.079Z,100878.22
2022-08-17T16:21:43.649Z,100874.84
2022-08-17T16:24:13.354Z,100873.50
2022-08-17T16:26:41.871Z,100873.66
2022-08-17T16:29:08.695Z,100867.03
2022-08-17T16:31:36.291Z,100869.41
2022-08-17T16:34:17.766Z,100869.91
2022-08-17T16:36:54.614Z,100858.28
2022-08-17T16:39:22.944Z,100859.63
2022-08-17T16:41:50.253Z,100855.72
2022-08-17T16:44:19.283Z,100851.84
2022-08-17T16:46:47.256Z,100848.81
2022-08-17T16:49:24.438Z,100844.91
2022-08-17T16:52:02.943Z,100844.91
2022-08-17T16:54:29.325Z,100855.50
2022-08-17T16:56:55.842Z,100848.19
2022-08-17T16:59:31.146Z,100847.16
2022-08-17T17:02:04.700Z,100843.41
2022-08-17T17:04:35.079Z,100844.94
2022-08-17T17:07:25.595Z,100853.50
2022-08-17T17:09:55.385Z,100850.28
2022-08-17T17:13:02.970Z,100845.53
2022-08-17T17:15:10.614Z,100857.50
2022-08-17T17:17:38.936Z,100860.81
2022-08-17T17:20:11.637Z,100859.59
2022-08-17T17:22:47.795Z,100855.53
2022-08-17T17:25:29.387Z,100861.91
2022-08-17T17:28:26.823Z,100865.06
2022-08-17T17:31:23.644Z,100851.25
2022-08-17T17:33:55.713Z,100869.06
2022-08-17T17:36:44.763Z,100865.59
2022-08-17T17:39:32.139Z,100865.41
2022-08-17T17:42:02.471Z,100868.88
2022-08-17T17:44:34.341Z,100870.50
2022-08-17T17:47:02.757Z,100882.56
2022-08-17T17:49:41.920Z,100886.59
2022-08-17T17:52:30.230Z,100894.81
2022-08-17T17:55:42.310Z,100890.88
2022-08-17T17:58:39.253Z,100895.72
2022-08-17T18:01:50.561Z,100877.66
2022-08-17T18:04:40.636Z,100862.28
2022-08-17T18:07:18.023Z,100866.28
2022-08-17T18:10:19.411Z,100871.41
2022-08-17T18:13:32.632Z,100860.47
2022-08-17T18:16:00.896Z,100860.59
2022-08-17T18:18:37.651Z,100851.16
2022-08-17T18:21:19.208Z,100866.75
2022-08-17T18:23:48.147Z,100885.84
2022-08-17T18:26:36.886Z,100912.22
2022-08-17T18:29:21.209Z,100990.31
2022-08-17T18:31:47.996Z,100996.47
2022-08-17T18:37:26.427Z,101010.72
2022-08-17T18:39:52.971Z,101011.69
2022-08-17T18:42:28.148Z,101002.78
2022-08-17T18:44:55.481Z,101021.00
2022-08-17T18:47:28.080Z,101054.06
2022-08-17T18:49:58.790Z,101069.56
2022-08-17T18:52:32.975Z,101080.66
2022-08-17T18:55:12.179Z,101084.00
2022-08-17T18:57:52.644Z,101087.00
2022-08-17T19:00:40.309Z,101087.50
2022-08-17T19:03:15.928Z,101087.47
2022-08-17T19:05:45.974Z,101076.94
2022-08-17T19:08:18.356Z,101050.50
2022-08-17T19:10:47.439Z,101046.94
2022-08-17T19:13:23.948Z,101014.31
2022-08-17T19:16:13.814Z,100994.31
2022-08-17T19:18:54.493Z,100981.78
2022-08-17T19:21:41.392Z,100996.28
2022-08-17T19:24:19.343Z,101016.72
2022-08-17T19:27:00.276Z,101022.41
2022-08-17T19:29:41.563Z,101014.13
2022-08-17T19:32:10.561Z,101007.88
2022-08-17T19:34:38.942Z,101007.88
2022-08-17T19:37:16.398Z,101003.41
2022-08-17T19:40:10.101Z,101003.66
2022-08-17T19:42:47.392Z,100997.16
2022-08-17T19:45:40.033Z,100991.09
2022-08-17T19:48:21.489Z,100972.50
2022-08-17T19:50:56.440Z,100970.81
2022-08-17T19:54:06.349Z,100971.94
2022-08-17T19:56:44.204Z,100964.84
2022-08-17T19:59:28.713Z,100972.31
2022-08-17T20:02:37.391Z,100969.06
2022-08-17T20:05:15.031Z,100971.75
2022-08-17T20:07:53.995Z,100967.09
2022-08-17T20:10:27.015Z,100961.03
2022-08-17T20:12:56.162Z,100960.91
2022-08-17T20:15:30.619Z,100961.03
2022-08-17T20:17:59.826Z,100951.31
2022-08-17T20:20:58.818Z,100941.94
2022-08-17T20:23:51.543Z,100928.81
2022-08-17T20:26:26.895Z,100928.94
2022-08-17T20:29:14.501Z,100938.94
2022-08-17T20:31:51.616Z,100937.25
2022-08-17T20:34:30.971Z,100933.97
2022-08-17T20:37:26.252Z,100943.72
2022-08-17T20:39:52.801Z,100936.53
2022-08-17T20:42:22.246Z,100937.63
2022-08-17T20:44:57.880Z,100933.13
2022-08-17T20:48:15.313Z,100929.75
2022-08-17T20:50:39.887Z,100929.50
2022-08-17T20:53:10.040Z,100937.63
2022-08-17T20:55:36.422Z,100929.75
2022-08-17T20:58:24.603Z,100937.78
2022-08-17T21:00:56.671Z,100953.81
2022-08-17T21:03:23.350Z,100950.44
2022-08-17T21:06:16.820Z,100951.66
2022-08-17T21:08:53.284Z,100943.06
2022-08-17T21:11:56.833Z,100937.16
2022-08-17T21:14:41.671Z,100926.69
2022-08-17T21:17:18.231Z,100924.16
2022-08-17T21:20:11.029Z,100945.69
2022-08-17T21:23:00.897Z,100958.09
2022-08-17T21:25:49.376Z,100946.91
2022-08-17T21:28:59.877Z,100950.69
2022-08-17T21:31:45.971Z,100951.94
2022-08-17T21:34:16.844Z,100949.28
2022-08-17T21:36:48.019Z,100942.34
2022-08-17T21:39:19.334Z,100943.47
2022-08-17T21:41:57.993Z,100956.84
2022-08-17T21:44:34.903Z,100958.78
2022-08-17T21:47:21.917Z,100950.88
2022-08-17T21:49:48.393Z,100950.88
2022-08-17T21:52:17.791Z,100952.00
2022-08-17T21:54:53.830Z,100955.66
2022-08-17T21:57:27.233Z,100954.81
2022-08-17T21:59:59.877Z,100956.63
2022-08-17T22:02:33.738Z,100956.91
2022-08-17T22:05:13.864Z,100955.06
2022-08-17T22:07:50.796Z,100958.59
2022-08-17T22:10:37.378Z,100951.91
2022-08-17T22:13:16.431Z,100954.59
2022-08-17T22:15:48.348Z,100951.41
2022-08-17T22:18:21.734Z,100954.34
2022-08-17T22:20:54.740Z,100950.97
2022-08-17T22:24:01.160Z,100947.69
2022-08-17T22:27:05.865Z,100938.81
2022-08-17T22:29:47.283Z,100940.78
2022-08-17T22:32:37.626Z,100933.13
2022-08-17T22:35:18.915Z,100932.53
2022-08-17T22:37:45.753Z,100923.94
2022-08-17T22:40:24.536Z,100927.09
2022-08-17T22:42:51.079Z,100928.22
2022-08-17T22:45:17.563Z,100921.41
2022-08-17T22:47:48.689Z,100920.69
2022-08-17T22:50:27.008Z,100920.09
2022-08-17T22:53:19.048Z,100916.69
2022-08-17T22:56:09.487Z,100930.31
2022-08-17T22:59:03.094Z,100930.56
2022-08-17T23:01:33.114Z,100933.34
2022-08-17T23:04:05.811Z,100935.44
2022-08-17T23:06:34.549Z,100937.41
2022-08-17T23:09:04.191Z,100943.94
2022-08-17T23:11:48.967Z,100938.09
2022-08-17T23:14:19.704Z,100942.59
2022-08-17T23:16:47.379Z,100938.34
2022-08-17T23:19:16.463Z,100941.25
2022-08-17T23:21:44.769Z,100945.75
2022-08-17T23:24:16.933Z,100937.25
2022-08-17T23:26:43.352Z,100942.59
2022-08-17T23:29:09.979Z,100947.22
2022-08-17T23:31:37.568Z,100947.44
2022-08-17T23:34:09.001Z,100955.59
2022-08-17T23:36:35.963Z,100946.84
2022-08-17T23:39:02.355Z,100947.13
2022-08-17T23:41:33.822Z,100942.84
2022-08-17T23:44:01.108Z,100950.00
2022-08-17T23:46:27.617Z,100938.59
2022-08-17T23:48:54.185Z,100938.72
2022-08-17T23:51:26.770Z,100944.19
2022-08-17T23:54:05.661Z,100946.13
2022-08-17T23:56:37.448Z,100946.88
2022-08-17T23:59:03.842Z,100953.06
